Time;durP1;ratioP1;P1;durP2;ratioP2;P2;SDS_P1;SDS_P2;PMS_P1;PMS_P2;Temp;Humidity;BMP_temperature;BMP_pressure;BME280_temperature;BME280_humidity;BME280_pressure;Samples;Min_cycle;Max_cycle;Signal;HPM_P1;HPM_P2
2022/01/07 00:29:59;;;;;;;;;;;;;;;;;;;;;
2022/01/07 04:18:31;;;;;;;;;;;;;;;2.06;93.11;99703.41;5009094;23;19961;-89
2022/01/07 04:20:56;;;;;;;;;;;;;;;1.87;92.44;99709.66;4990729;28;19965;-89
2022/01/07 04:23:24;;;;;;;;;;;;;;;1.83;92.13;99703.59;4989820;28;20013;-89
2022/01/07 04:25:52;;;;;;;;;;;;;;;1.76;91.97;99707.16;4991359;28;19921;-88
2022/01/07 04:28:19;;;;;;;;;;;;;;;1.78;94.52;99705.38;5009447;28;19957;-90
2022/01/07 04:30:47;;;;;;;;;;;;;;;2.10;98.99;99707.69;5008626;28;20300;-89
2022/01/07 04:33:15;;;;;;;;;;;;;;;2.22;100.00;99706.72;5008814;28;19917;-89
2022/01/07 04:35:41;;;;;;;;;;;;;;;2.32;100.00;99710.13;5007557;28;19996;-87
2022/01/07 04:38:07;;;;;;;;;;;;;;;2.34;100.00;99700.50;5009660;28;19921;-88
2022/01/07 04:40:35;;;;;;;;;;;;;;;2.38;100.00;99698.72;5008921;28;19917;-90
2022/01/07 04:43:06;;;;;;;;;;;;;;;2.39;100.00;99697.84;5009824;28;19921;-90
2022/01/07 04:45:32;;;;;;;;;;;;;;;2.40;100.00;99694.34;4993309;28;19922;-90
2022/01/07 04:48:07;;;;;;;;;;;;;;;;;;;;;
2022/01/07 04:50:37;;;;;;;;;;;;;;;2.40;100.00;99695.22;5009300;28;19969;-87
2022/01/07 04:53:15;;;;;;;;;;;;;;;;;;;;;
2022/01/07 04:55:49;;;;;;;;;;;;;;;2.36;100.00;99691.78;4992655;28;19918;-91
2022/01/07 04:58:25;;;;;;;;;;;;;;;;;;;;;
2022/01/07 05:01:11;;;;;;;;;;;;;;;;;;;;;
2022/01/07 05:03:36;;;;;;;;;;;;;;;2.58;100.00;99688.88;4992272;28;20308;-85
2022/01/07 05:06:32;;;;;;;;;;;;;;;2.70;100.00;99688.75;4992609;28;20018;-87
2022/01/07 05:08:54;;;;;;;;;;;;;;;2.70;100.00;99680.03;4992349;28;19918;-86
2022/01/07 05:11:20;;;;;;;;;;;;;;;2.69;100.00;99686.16;4991030;28;19918;-86
2022/01/07 05:13:47;;;;;;;;;;;;;;;2.66;100.00;99687.03;4991180;28;19929;-87
2022/01/07 05:16:16;;;;;;;;;;;;;;;2.63;100.00;99687.13;4989734;28;19953;-90
2022/01/07 05:18:41;;;;;;;;;;;;;;;2.64;100.00;99688.81;4992477;28;19948;-93
2022/01/07 05:21:09;;;;;;;;;;;;;;;2.61;100.00;99686.25;4991111;28;20339;-92
2022/01/07 05:23:44;;;;;;;;;;;;;;;2.57;100.00;99681.94;5006366;28;20377;-88
2022/01/07 05:26:15;;;;;;;;;;;;;;;2.58;100.00;99678.44;5006795;28;20332;-89
2022/01/07 05:28:40;;;;;;;;;;;;;;;2.58;99.65;99673.19;4990945;28;19921;-91
2022/01/07 05:31:33;;;;;;;;;;;;;;;;;;;;;
2022/01/07 05:34:01;;;;;;;;;;;;;;;2.49;98.47;99666.34;4993048;28;19928;-91
2022/01/07 05:36:29;;;;;;;;;;;;;;;2.48;97.96;99674.22;4993703;28;19921;-91
2022/01/07 05:38:57;;;;;;;;;;;;;;;2.48;97.32;99671.59;4995953;28;19922;-91
2022/01/07 08:36:38;;;;;;;;;;;;;;;1.93;82.23;99621.63;5556867;23;19934;-92
2022/01/07 08:39:06;;;;;;;;;;;;;;;1.92;82.08;99630.34;4971409;28;19926;-94
2022/01/07 08:41:35;;;;;;;;;;;;;;;1.94;81.89;99630.34;4968649;28;19926;-91
2022/01/07 08:44:01;;;;;;;;;;;;;;;1.96;81.87;99631.19;4980016;28;19940;-92
2022/01/07 08:46:26;;;;;;;;;;;;;;;1.94;81.67;99633.81;4971925;28;20013;-91
2022/01/07 08:48:54;;;;;;;;;;;;;;;1.96;81.47;99631.19;4971439;28;19926;-90
2022/01/07 08:51:20;;;;;;;;;;;;;;;1.97;81.50;99632.91;4986178;28;19922;-93
2022/01/07 08:53:52;;;;;;;;;;;;;;;1.99;81.62;99629.41;4971981;28;20025;-92
2022/01/07 08:56:27;;;;;;;;;;;;;;;1.97;81.52;99619.84;4973486;28;19958;-91
2022/01/07 08:58:55;;;;;;;;;;;;;;;2.01;81.56;99621.56;4973163;28;19972;-93
2022/01/07 09:01:23;;;;;;;;;;;;;;;1.98;81.39;99612.00;4971866;28;19918;-90
2022/01/07 09:04:09;;;;;;;;;;;;;;;2.02;81.34;99619.81;4971784;28;19922;-90
2022/01/07 09:06:40;;;;;;;;;;;;;;;2.01;81.32;99624.19;4968975;28;20385;-89
2022/01/07 09:09:09;;;;;;;;;;;;;;;2.00;81.09;99614.59;4973904;28;19918;-88
2022/01/07 09:11:37;;;;;;;;;;;;;;;2.03;80.99;99611.06;4974648;28;19926;-89
2022/01/07 09:14:05;;;;;;;;;;;;;;;2.03;80.91;99609.34;4974759;28;20439;-91
2022/01/07 09:16:33;;;;;;;;;;;;;;;2.03;80.82;99608.44;4973940;28;20360;-93
2022/01/07 09:19:00;;;;;;;;;;;;;;;2.06;80.72;99606.69;4976771;28;19969;-89
2022/01/07 09:21:34;;;;;;;;;;;;;;;2.01;80.47;99608.50;4973047;28;20373;-89
2022/01/07 09:24:05;;;;;;;;;;;;;;;2.02;80.29;99604.13;4975273;28;19918;-92
2022/01/07 09:26:35;;;;;;;;;;;;;;;2.03;80.14;99605.84;4975224;28;19925;-93
2022/01/07 09:29:03;;;;;;;;;;;;;;;2.05;80.07;99604.09;4976079;28;19925;-91
2022/01/07 09:31:38;;;;;;;;;;;;;;;;;;;;;
2022/01/07 09:34:04;;;;;;;;;;;;;;;2.04;79.70;99600.59;4975684;28;19918;-92
2022/01/07 09:36:29;;;;;;;;;;;;;;;2.03;79.71;99601.50;4973755;28;20012;-90
2022/01/07 09:39:00;;;;;;;;;;;;;;;2.03;79.80;99598.00;4976216;28;19957;-91
2022/01/07 09:41:32;;;;;;;;;;;;;;;2.06;79.57;99597.97;4975578;28;19924;-91
2022/01/07 09:44:08;;;;;;;;;;;;;;;;;;;;;
2022/01/07 09:46:33;;;;;;;;;;;;;;;2.07;79.51;99608.41;4976361;28;19918;-91
2022/01/07 09:48:59;;;;;;;;;;;;;;;2.09;79.47;99598.81;4974815;28;20020;-92
2022/01/07 09:51:26;;;;;;;;;;;;;;;2.08;79.48;99601.44;4974857;28;19918;-93
2022/01/07 09:53:51;;;;;;;;;;;;;;;2.08;79.24;99604.06;4972716;28;19922;-93
2022/01/07 09:56:19;;;;;;;;;;;;;;;2.09;79.18;99611.88;4973303;28;19933;-87
2022/01/07 09:58:45;;;;;;;;;;;;;;;2.09;79.02;99605.78;4989792;28;19918;-88
2022/01/07 10:01:13;;;;;;;;;;;;;;;2.10;78.83;99602.28;4974333;28;19926;-91
2022/01/07 10:03:42;;;;;;;;;;;;;;;2.12;78.65;99601.41;4975926;28;20444;-92
2022/01/07 10:06:21;;;;;;;;;;;;;;;2.10;78.56;99607.53;4973828;28;19976;-92
2022/01/07 10:09:13;;;;;;;;;;;;;;;2.11;78.49;99598.81;4973976;28;19918;-90
2022/01/07 10:11:39;;;;;;;;;;;;;;;2.13;78.27;99591.81;4974954;28;19926;-93
2022/01/07 10:14:18;;;;;;;;;;;;;;;2.13;78.36;99581.34;4974472;28;19996;-93
2022/01/07 10:17:09;;;;;;;;;;;;;;;2.14;78.20;99586.56;4974272;28;19918;-92
2022/01/07 10:19:38;;;;;;;;;;;;;;;2.14;78.09;99581.31;4972815;28;19918;-89
2022/01/07 10:22:10;;;;;;;;;;;;;;;2.16;78.01;99573.47;4973232;28;19953;-93
2022/01/07 10:24:55;;;;;;;;;;;;;;;2.15;77.90;99579.56;4974273;28;19961;-93
2022/01/07 10:27:21;;;;;;;;;;;;;;;2.18;77.85;99574.31;4974207;28;20044;-88
2022/01/07 10:29:46;;;;;;;;;;;;;;;2.20;77.86;99572.53;4974381;28;20434;-89
2022/01/07 10:32:23;;;;;;;;;;;;;;;2.20;77.75;99577.75;4973945;28;20384;-88
2022/01/07 10:35:10;;;;;;;;;;;;;;;2.21;77.46;99578.66;4973378;28;19921;-88
2022/01/07 10:37:46;;;;;;;;;;;;;;;2.24;77.58;99574.22;4988741;28;19965;-87
2022/01/07 10:40:31;;;;;;;;;;;;;;;2.24;77.50;99573.38;4974606;28;19922;-89
2022/01/07 10:43:11;;;;;;;;;;;;;;;2.25;77.28;99569.84;4989694;28;19918;-88
2022/01/07 10:45:43;;;;;;;;;;;;;;;2.25;77.37;99559.41;4974855;28;19957;-91
2022/01/07 10:48:12;;;;;;;;;;;;;;;2.27;76.83;99550.66;4973349;28;20402;-94
2022/01/07 10:50:59;;;;;;;;;;;;;;;2.29;76.92;99551.50;4972946;28;19953;-92
2022/01/07 10:53:32;;;;;;;;;;;;;;;2.31;76.63;99552.38;4989853;28;19929;-94
2022/01/07 10:55:57;;;;;;;;;;;;;;;2.29;76.51;99556.72;4973886;28;19925;-93
2022/01/07 10:58:25;;;;;;;;;;;;;;;2.32;76.47;99548.00;4975005;28;19918;-92
2022/01/07 11:00:55;;;;;;;;;;;;;;;2.36;76.30;99542.72;4975250;28;20288;-94
2022/01/07 11:03:23;;;;;;;;;;;;;;;2.38;76.07;99542.69;4974123;28;20349;-88
2022/01/07 11:05:51;;;;;;;;;;;;;;;2.34;75.90;99534.00;4972378;28;20397;-89
2022/01/07 11:08:19;;;;;;;;;;;;;;;2.38;75.93;99528.72;4973407;28;19923;-88
2022/01/07 11:10:55;;;;;;;;;;;;;;;2.36;75.85;99529.63;4973307;28;19918;-88
2022/01/07 11:13:23;;;;;;;;;;;;;;;2.41;75.84;99533.91;4973563;28;19918;-93
2022/01/07 11:15:48;;;;;;;;;;;;;;;2.43;75.83;99526.94;4973350;28;20277;-88
2022/01/07 11:18:14;;;;;;;;;;;;;;;2.45;75.86;99525.16;4973502;28;19918;-92
2022/01/07 11:20:39;;;;;;;;;;;;;;;2.43;75.81;99538.25;4972084;28;19965;-94
2022/01/07 11:23:12;;;;;;;;;;;;;;;2.50;75.56;99541.66;4973500;28;19969;-94
2022/01/07 11:25:37;;;;;;;;;;;;;;;2.51;75.54;99527.69;4989499;28;19921;-92
2022/01/07 11:28:03;;;;;;;;;;;;;;;2.50;75.49;99529.41;4973094;28;19922;-92
2022/01/07 11:30:32;;;;;;;;;;;;;;;2.52;75.44;99532.00;4973200;28;19989;-93
2022/01/07 11:32:58;;;;;;;;;;;;;;;2.55;75.19;99537.22;4972359;28;19996;-92
2022/01/07 11:35:26;;;;;;;;;;;;;;;2.61;75.41;99525.81;4972479;28;20284;-92
2022/01/07 11:38:01;;;;;;;;;;;;;;;2.61;75.38;99526.66;4988244;28;19922;-92
2022/01/07 11:40:32;;;;;;;;;;;;;;;2.60;75.24;99524.94;4973627;28;20377;-91
2022/01/07 11:43:05;;;;;;;;;;;;;;;2.61;75.07;99524.03;4988670;28;19918;-92
2022/01/07 11:45:37;;;;;;;;;;;;;;;2.68;75.32;99523.09;4972535;28;20029;-89
2022/01/07 11:48:13;;;;;;;;;;;;;;;2.67;75.05;99505.66;4972496;28;20419;-91
2022/01/07 11:50:46;;;;;;;;;;;;;;;2.66;74.93;99503.91;4971140;28;19922;-90
2022/01/07 11:53:12;;;;;;;;;;;;;;;2.70;74.80;99510.84;4972208;28;20374;-88
2022/01/07 11:55:37;;;;;;;;;;;;;;;2.72;74.73;99509.03;4973758;28;19922;-90
2022/01/07 11:58:04;;;;;;;;;;;;;;;2.76;74.51;99498.53;4972445;28;20377;-89
2022/01/07 12:00:49;;;;;;;;;;;;;;;2.79;74.73;99503.72;4972523;28;19934;-90
2022/01/07 12:03:29;;;;;;;;;;;;;;;2.80;74.20;99508.09;4988759;28;19917;-92
2022/01/07 12:05:54;;;;;;;;;;;;;;;2.81;74.08;99501.94;4971042;28;19918;-87
2022/01/07 12:08:19;;;;;;;;;;;;;;;2.82;74.04;99493.22;4988210;28;20452;-90
2022/01/07 12:10:45;;;;;;;;;;;;;;;2.91;73.80;99499.16;4972204;28;20029;-89
2022/01/07 12:13:10;;;;;;;;;;;;;;;2.88;73.64;99499.22;4973249;28;19922;-93
2022/01/07 12:15:40;;;;;;;;;;;;;;;2.88;73.75;99496.59;4972196;28;20361;-90
2022/01/07 12:18:09;;;;;;;;;;;;;;;2.95;73.55;99492.13;4972518;28;19941;-90
2022/01/07 12:20:50;;;;;;;;;;;;;;;2.95;74.01;99489.50;4970914;28;20333;-90
2022/01/07 12:23:29;;;;;;;;;;;;;;;;;;;;;
2022/01/07 12:25:57;;;;;;;;;;;;;;;2.98;74.15;99492.06;4973125;28;19918;-90
2022/01/07 12:28:22;;;;;;;;;;;;;;;3.00;74.34;99484.19;4971959;28;20022;-90
2022/01/07 12:30:50;;;;;;;;;;;;;;;3.02;74.47;99490.28;4971898;28;20362;-89
2022/01/07 12:33:18;;;;;;;;;;;;;;;3.01;74.25;99488.53;4971693;28;20369;-89
2022/01/07 12:35:43;;;;;;;;;;;;;;;3.03;74.15;99486.75;4970530;28;20328;-88
2022/01/07 12:38:09;;;;;;;;;;;;;;;3.03;74.19;99471.03;4971606;28;19926;-90
2022/01/07 12:40:35;;;;;;;;;;;;;;;3.04;74.26;99471.03;4971484;28;19925;-90
2022/01/07 12:43:00;;;;;;;;;;;;;;;3.06;74.34;99469.25;4971723;28;20262;-90
2022/01/07 12:45:25;;;;;;;;;;;;;;;3.09;74.34;99466.59;4975287;28;19918;-92
2022/01/07 12:47:54;;;;;;;;;;;;;;;3.11;74.42;99448.22;4975652;28;20017;-87
2022/01/07 12:50:29;;;;;;;;;;;;;;;3.19;74.52;99450.69;4976343;28;19953;-87
2022/01/07 12:52:54;;;;;;;;;;;;;;;3.45;76.17;99453.69;4991502;28;19925;-89
2022/01/07 12:55:21;;;;;;;;;;;;;;;3.68;78.25;99451.53;4975524;28;19926;-90
2022/01/07 12:57:59;;;;;;;;;;;;;;;3.76;80.11;99455.72;4976611;28;19918;-88
2022/01/07 13:00:31;;;;;;;;;;;;;;;3.84;81.99;99449.47;4976746;28;19918;-89
2022/01/07 13:02:58;;;;;;;;;;;;;;;3.84;83.39;99441.59;4975241;28;19918;-89
2022/01/07 13:05:28;;;;;;;;;;;;;;;3.80;84.73;99444.28;4976377;28;19930;-91
2022/01/07 13:08:14;;;;;;;;;;;;;;;3.77;85.89;99438.25;4975679;28;19925;-92
2022/01/07 13:10:42;;;;;;;;;;;;;;;3.74;86.80;99444.41;4991248;28;19922;-92
2022/01/07 13:13:13;;;;;;;;;;;;;;;3.69;87.84;99446.25;4975357;28;19919;-90
2022/01/07 13:15:56;;;;;;;;;;;;;;;;;;;;;
2022/01/07 13:18:34;;;;;;;;;;;;;;;3.58;89.97;99443.00;4977101;28;19922;-92
2022/01/07 13:21:08;;;;;;;;;;;;;;;3.54;91.01;99441.31;4973522;28;19924;-91
2022/01/07 13:30:05;;;;;;;;;;;;;;;4.18;100.00;99415.53;4955118;29;20370;-91
2022/01/07 13:32:53;;;;;;;;;;;;;;;;;;;;;
2022/01/07 13:35:21;;;;;;;;;;;;;;;4.57;100.00;99404.97;4969672;28;19928;-92
2022/01/07 13:38:17;;;;;;;;;;;;;;;;;;;;;
2022/01/07 13:41:03;;;;;;;;;;;;;;;4.78;100.00;99410.59;4976969;28;20353;-92
2022/01/07 13:43:35;;;;;;;;;;;;;;;4.86;100.00;99404.22;4975297;28;19927;-91
2022/01/07 13:46:23;;;;;;;;;;;;;;;;;;;;;
2022/01/07 13:49:00;;;;;;;;;;;;;;;;;;;;;
2022/01/07 13:51:27;;;;;;;;;;;;;;;5.09;100.00;99411.53;4974825;28;19928;-92
2022/01/07 13:57:03;;;;;;;;;;;;;;;5.21;100.00;99412.97;4972175;28;19948;-90
2022/01/07 13:59:39;;;;;;;;;;;;;;;5.28;100.00;99421.53;4974708;28;19926;-91
2022/01/07 14:02:05;;;;;;;;;;;;;;;5.34;100.00;99416.09;4974223;28;20008;-89
2022/01/07 14:04:48;;;;;;;;;;;;;;;5.40;100.00;99420.34;4974768;28;20025;-89
2022/01/07 14:07:19;;;;;;;;;;;;;;;5.46;100.00;99425.44;4972766;28;19918;-88
2022/01/07 14:09:59;;;;;;;;;;;;;;;5.50;100.00;99431.47;4990238;28;19918;-88
2022/01/07 14:12:27;;;;;;;;;;;;;;;5.52;100.00;99433.16;4973635;28;19918;-88
2022/01/07 14:15:02;;;;;;;;;;;;;;;5.57;100.00;99431.25;4975899;28;19918;-94
2022/01/07 14:17:27;;;;;;;;;;;;;;;5.61;100.00;99432.88;4974134;28;19954;-89
2022/01/07 14:20:03;;;;;;;;;;;;;;;;;;;;;
2022/01/07 14:22:41;;;;;;;;;;;;;;;5.70;100.00;99417.78;4973844;28;20382;-89
2022/01/07 14:25:20;;;;;;;;;;;;;;;5.74;100.00;99416.75;4975654;28;19926;-90
2022/01/07 14:27:54;;;;;;;;;;;;;;;4.84;100.00;99420.94;4974407;28;20008;-92
2022/01/07 14:30:19;;;;;;;;;;;;;;;4.30;100.00;99417.84;4989996;28;19922;-92
2022/01/07 14:32:45;;;;;;;;;;;;;;;4.15;100.00;99416.44;4975617;28;20257;-94
2022/01/07 14:35:10;;;;;;;;;;;;;;;3.95;100.00;99416.00;4975405;28;19929;-94
2022/01/07 14:37:36;;;;;;;;;;;;;;;3.87;100.00;99413.56;4972824;28;19926;-90
2022/01/07 14:40:24;;;;;;;;;;;;;;;3.80;100.00;99412.84;4974170;28;20280;-91
2022/01/07 14:42:56;;;;;;;;;;;;;;;3.73;100.00;99420.84;4973913;28;19925;-90
2022/01/07 14:48:21;;;;;;;;;;;;;;;3.57;98.75;99426.38;4975002;28;19922;-88
2022/01/07 14:50:49;;;;;;;;;;;;;;;3.53;98.04;99421.28;4972947;28;20566;-92
2022/01/07 14:53:26;;;;;;;;;;;;;;;3.52;97.41;99424.78;4975099;28;19918;-94
2022/01/07 14:56:01;;;;;;;;;;;;;;;3.48;96.66;99413.50;4973929;28;19925;-89
2022/01/07 14:58:33;;;;;;;;;;;;;;;3.40;96.31;99418.88;4973565;28;19965;-89
2022/01/07 15:01:06;;;;;;;;;;;;;;;3.41;95.67;99409.25;4973157;28;19918;-89
2022/01/07 15:03:40;;;;;;;;;;;;;;;3.36;95.04;99409.34;4972474;28;19932;-93
2022/01/07 15:06:19;;;;;;;;;;;;;;;3.35;94.61;99414.63;4971694;28;19918;-93
2022/01/07 15:08:54;;;;;;;;;;;;;;;3.34;93.99;99418.16;4973516;28;19918;-95
2022/01/07 15:11:29;;;;;;;;;;;;;;;3.34;93.29;99412.91;4973466;28;19926;-95
2022/01/07 15:14:00;;;;;;;;;;;;;;;3.27;92.57;99420.00;4973515;28;19918;-91
2022/01/07 15:16:40;;;;;;;;;;;;;;;3.20;92.13;99416.63;4974772;28;19918;-90
2022/01/07 15:19:16;;;;;;;;;;;;;;;3.19;91.53;99424.50;4973426;28;20353;-93
2022/01/07 15:21:49;;;;;;;;;;;;;;;3.16;91.25;99420.22;4972119;28;20357;-94
2022/01/07 15:24:25;;;;;;;;;;;;;;;;;;;;;
2022/01/07 15:27:01;;;;;;;;;;;;;;;3.13;90.63;99425.50;4974938;28;19918;-95
2022/01/07 15:29:46;;;;;;;;;;;;;;;;;;;;;
2022/01/07 15:32:33;;;;;;;;;;;;;;;2.97;90.21;99419.69;4974342;28;19922;-90
2022/01/07 15:35:18;;;;;;;;;;;;;;;;;;;;;
2022/01/07 15:37:53;;;;;;;;;;;;;;;2.95;90.15;99431.06;4972603;28;19922;-91
2022/01/07 15:40:21;;;;;;;;;;;;;;;2.89;90.25;99432.91;4973898;28;20381;-93
2022/01/07 15:43:14;;;;;;;;;;;;;;;2.89;90.06;99437.28;4972785;28;19922;-93
2022/01/07 15:45:43;;;;;;;;;;;;;;;2.90;89.95;99433.75;5010637;28;20056;-92
2022/01/07 15:48:08;;;;;;;;;;;;;;;2.87;89.94;99434.69;5010642;28;19921;-92
2022/01/07 15:50:42;;;;;;;;;;;;;;;2.84;89.89;99432.13;5009375;28;20392;-92
2022/01/07 15:53:28;;;;;;;;;;;;;;;2.81;89.80;99418.19;5010468;28;19948;-91
2022/01/07 15:55:57;;;;;;;;;;;;;;;2.79;89.68;99427.84;5009572;28;22474;-88
2022/01/07 15:58:23;;;;;;;;;;;;;;;2.76;89.62;99438.34;4993876;28;19925;-89
2022/01/07 16:00:51;;;;;;;;;;;;;;;2.73;89.65;99439.28;5010005;28;19918;-89
2022/01/07 16:03:16;;;;;;;;;;;;;;;2.70;89.67;99429.72;4993966;28;20000;-94
2022/01/07 16:05:46;;;;;;;;;;;;;;;2.78;89.63;99428.75;5008945;28;20012;-88
2022/01/07 16:08:15;;;;;;;;;;;;;;;2.68;89.61;99430.63;5009419;28;19947;-89
2022/01/07 16:10:47;;;;;;;;;;;;;;;2.69;89.45;99422.75;4993532;28;19917;-88
2022/01/07 16:13:13;;;;;;;;;;;;;;;2.65;89.32;99417.59;5009241;28;20277;-92
2022/01/07 16:15:49;;;;;;;;;;;;;;;;;;;;;
2022/01/07 16:18:14;;;;;;;;;;;;;;;2.60;89.09;99422.03;4973558;28;19918;-94
2022/01/07 16:20:40;;;;;;;;;;;;;;;2.60;89.15;99417.69;4970872;28;20437;-91
2022/01/07 16:23:09;;;;;;;;;;;;;;;2.58;89.27;99411.59;4972024;28;19922;-93
2022/01/07 16:25:42;;;;;;;;;;;;;;;2.59;89.13;99408.13;4972318;28;19973;-91
2022/01/07 16:31:39;;;;;;;;;;;;;;;2.53;88.79;99398.59;4937105;29;20382;-93
2022/01/07 16:34:07;;;;;;;;;;;;;;;2.51;88.75;99403.00;4957541;28;19954;-94
2022/01/07 16:36:33;;;;;;;;;;;;;;;2.53;88.86;99392.50;4972120;28;19922;-89
2022/01/07 16:39:00;;;;;;;;;;;;;;;2.51;88.64;99404.75;4970666;28;20339;-91
2022/01/07 16:41:31;;;;;;;;;;;;;;;2.49;88.56;99411.75;4971939;28;19928;-91
2022/01/07 16:43:57;;;;;;;;;;;;;;;2.48;88.67;99415.28;4972781;28;19926;-90
2022/01/07 16:46:26;;;;;;;;;;;;;;;2.48;88.39;99420.50;4972770;28;19922;-93
2022/01/07 16:48:59;;;;;;;;;;;;;;;2.45;88.44;99425.78;4972890;28;20361;-92
2022/01/07 16:51:29;;;;;;;;;;;;;;;2.46;88.44;99432.75;4973878;28;20012;-89
2022/01/07 16:54:16;;;;;;;;;;;;;;;2.43;88.33;99417.09;4972358;28;19922;-89
2022/01/07 16:56:40;;;;;;;;;;;;;;;2.40;88.21;99427.59;4971743;28;19922;-88
2022/01/07 16:59:13;;;;;;;;;;;;;;;2.39;88.24;99420.63;4973705;28;19929;-91
2022/01/07 17:01:39;;;;;;;;;;;;;;;2.46;87.95;99417.06;4985871;28;20027;-90
2022/01/07 17:04:06;;;;;;;;;;;;;;;2.37;87.90;99415.44;4972206;28;19961;-89
2022/01/07 17:06:34;;;;;;;;;;;;;;;2.38;87.95;99419.78;4971134;28;20388;-90
2022/01/07 17:09:26;;;;;;;;;;;;;;;2.38;87.94;99418.91;4972833;28;19926;-89
2022/01/07 17:12:10;;;;;;;;;;;;;;;;;;;;;
2022/01/07 17:14:52;;;;;;;;;;;;;;;2.33;87.82;99421.56;4972341;28;19928;-88
2022/01/07 17:17:27;;;;;;;;;;;;;;;2.38;87.63;99417.16;4987932;28;19922;-93
2022/01/07 17:19:54;;;;;;;;;;;;;;;2.34;87.40;99407.63;4952190;28;19930;-89
2022/01/07 17:22:20;;;;;;;;;;;;;;;2.32;87.21;99412.03;4949519;28;20062;-92
2022/01/07 17:24:47;;;;;;;;;;;;;;;2.36;87.30;99414.56;4951390;28;20024;-89
2022/01/07 17:27:15;;;;;;;;;;;;;;;2.32;87.36;99414.66;4951237;28;19923;-89
2022/01/07 17:29:49;;;;;;;;;;;;;;;2.36;87.24;99408.47;4952152;28;19929;-89
2022/01/07 17:32:17;;;;;;;;;;;;;;;2.30;87.24;99406.81;4955379;29;19919;-95
2022/01/07 17:34:42;;;;;;;;;;;;;;;2.27;87.36;99412.09;4955575;28;19923;-91
2022/01/07 17:37:13;;;;;;;;;;;;;;;2.24;87.19;99409.53;4954343;28;19923;-92
2022/01/07 17:39:38;;;;;;;;;;;;;;;2.26;87.12;99405.13;4954314;28;20058;-92
2022/01/07 17:42:11;;;;;;;;;;;;;;;2.28;87.07;99410.34;4954933;28;20453;-94
2022/01/07 17:44:38;;;;;;;;;;;;;;;2.24;86.97;99400.81;4955577;28;20009;-92
2022/01/07 17:47:07;;;;;;;;;;;;;;;2.24;86.78;99401.69;4954818;28;19918;-93
2022/01/07 17:49:34;;;;;;;;;;;;;;;2.19;86.40;99395.66;4953873;28;19919;-90
2022/01/07 17:52:06;;;;;;;;;;;;;;;2.20;86.18;99397.38;4973577;28;19929;-90
2022/01/07 17:57:36;;;;;;;;;;;;;;;;;;;;;
2022/01/07 18:00:04;;;;;;;;;;;;;;;2.19;85.79;99398.28;4974499;28;19922;-90
2022/01/07 18:02:40;;;;;;;;;;;;;;;2.20;85.73;99402.59;4973260;28;19953;-91
2022/01/07 18:05:07;;;;;;;;;;;;;;;2.13;85.78;99398.38;4975094;28;19922;-89
2022/01/07 18:07:40;;;;;;;;;;;;;;;2.12;85.81;99392.28;4973655;28;19965;-93
2022/01/07 18:10:15;;;;;;;;;;;;;;;2.15;85.67;99389.63;4974998;28;20369;-91
2022/01/07 18:12:41;;;;;;;;;;;;;;;2.49;85.93;99383.88;4975490;28;19969;-88
2022/01/07 18:15:07;;;;;;;;;;;;;;;2.30;86.30;99391.13;4972667;28;19945;-89
2022/01/07 18:17:33;;;;;;;;;;;;;;;2.24;86.36;99386.00;4989804;28;20316;-89
2022/01/07 18:19:58;;;;;;;;;;;;;;;2.20;86.33;99378.22;4975327;28;19922;-89
2022/01/07 18:22:24;;;;;;;;;;;;;;;2.18;86.14;99383.47;4972940;28;19922;-89
2022/01/07 18:24:49;;;;;;;;;;;;;;;2.14;85.92;99384.41;4974497;28;19926;-89
2022/01/07 18:27:14;;;;;;;;;;;;;;;2.15;85.79;99384.41;4974218;28;19930;-89
2022/01/07 18:29:40;;;;;;;;;;;;;;;2.15;85.42;99373.06;4972978;28;20029;-90
2022/01/07 18:32:05;;;;;;;;;;;;;;;2.11;85.21;99368.78;4973701;28;20296;-90
2022/01/07 18:34:31;;;;;;;;;;;;;;;2.14;85.15;99369.59;4974747;28;19925;-89
2022/01/07 18:36:56;;;;;;;;;;;;;;;2.11;84.82;99369.63;4971847;28;20028;-90
2022/01/07 18:39:21;;;;;;;;;;;;;;;2.10;84.67;99369.66;4979242;28;19922;-89
2022/01/07 18:41:47;;;;;;;;;;;;;;;2.09;84.60;99362.69;4972531;28;19929;-89
2022/01/07 18:44:12;;;;;;;;;;;;;;;2.11;84.51;99356.56;4973228;28;19929;-89
2022/01/07 18:46:38;;;;;;;;;;;;;;;2.11;84.38;99360.94;4973112;28;20417;-89
2022/01/07 18:49:03;;;;;;;;;;;;;;;2.09;84.36;99354.84;4972286;28;19980;-87
2022/01/07 18:51:29;;;;;;;;;;;;;;;2.11;84.32;99353.09;4971564;28;19934;-88
2022/01/07 18:53:54;;;;;;;;;;;;;;;2.09;84.26;99345.28;4974218;28;20285;-88
2022/01/07 18:56:20;;;;;;;;;;;;;;;2.09;84.26;99339.16;4973010;28;20304;-90
2022/01/07 18:58:45;;;;;;;;;;;;;;;2.09;84.08;99344.41;4973607;28;19926;-90
2022/01/07 19:01:11;;;;;;;;;;;;;;;2.09;83.92;99350.50;4973134;28;19918;-90
2022/01/07 19:03:36;;;;;;;;;;;;;;;2.13;84.22;99348.69;4973088;28;19933;-90
2022/01/07 19:06:02;;;;;;;;;;;;;;;2.10;84.13;99354.81;4971240;28;20420;-89
2022/01/07 19:08:27;;;;;;;;;;;;;;;2.13;83.65;99360.00;4973007;28;20021;-88
2022/01/07 19:10:52;;;;;;;;;;;;;;;2.11;83.14;99353.09;4974101;28;19973;-90
2022/01/07 19:13:21;;;;;;;;;;;;;;;2.08;82.80;99354.00;4972845;28;19925;-90
2022/01/07 19:15:46;;;;;;;;;;;;;;;2.02;82.48;99355.84;4972951;28;20427;-90
2022/01/07 19:18:17;;;;;;;;;;;;;;;2.04;82.33;99357.53;4972894;28;19922;-89
2022/01/07 19:20:42;;;;;;;;;;;;;;;2.06;82.49;99353.16;4970945;28;19923;-89
2022/01/07 19:23:08;;;;;;;;;;;;;;;2.07;82.49;99354.88;4972314;28;19926;-88
2022/01/07 19:25:33;;;;;;;;;;;;;;;2.09;82.37;99349.63;4972242;28;19922;-90
2022/01/07 19:27:58;;;;;;;;;;;;;;;2.16;82.20;99343.44;4973540;28;19926;-88
2022/01/07 19:30:23;;;;;;;;;;;;;;;2.13;82.00;99340.84;4972234;28;19922;-90
2022/01/07 19:32:49;;;;;;;;;;;;;;;2.10;81.95;99336.53;4973478;28;20443;-88
2022/01/07 19:35:14;;;;;;;;;;;;;;;2.16;81.70;99330.34;4972280;28;19929;-89
2022/01/07 19:37:39;;;;;;;;;;;;;;;2.17;81.77;99334.69;4972457;28;19926;-87
2022/01/07 19:40:05;;;;;;;;;;;;;;;2.12;81.46;99332.16;4973234;28;20030;-89
2022/01/07 19:42:30;;;;;;;;;;;;;;;2.20;81.41;99331.16;4970833;28;19926;-88
2022/01/07 19:44:55;;;;;;;;;;;;;;;2.14;81.55;99321.69;4972163;28;19966;-90
2022/01/07 19:47:24;;;;;;;;;;;;;;;2.13;81.75;99315.56;4972673;28;19931;-88
2022/01/07 19:49:50;;;;;;;;;;;;;;;2.16;81.73;99306.84;4971105;28;19937;-88
2022/01/07 19:52:15;;;;;;;;;;;;;;;2.20;81.79;99303.25;4970781;28;19930;-88
2022/01/07 19:54:40;;;;;;;;;;;;;;;2.22;82.21;99306.72;4971165;28;19930;-88
2022/01/07 19:57:05;;;;;;;;;;;;;;;2.22;82.17;99304.13;4971911;28;20020;-88
2022/01/07 19:59:31;;;;;;;;;;;;;;;2.23;82.14;99297.97;4972102;28;20001;-88
2022/01/07 20:01:58;;;;;;;;;;;;;;;2.21;81.87;99296.31;4970690;28;19922;-89
2022/01/07 20:04:24;;;;;;;;;;;;;;;2.20;81.77;99302.41;4986716;28;19922;-88
2022/01/07 20:06:50;;;;;;;;;;;;;;;2.20;81.63;99308.50;4971764;28;19929;-88
2022/01/07 20:09:15;;;;;;;;;;;;;;;2.23;81.53;99303.22;4971668;28;20435;-87
2022/01/07 20:11:41;;;;;;;;;;;;;;;2.24;81.29;99291.03;4971118;28;19928;-88
2022/01/07 20:14:06;;;;;;;;;;;;;;;2.23;81.15;99297.97;4971006;28;19985;-86
2022/01/07 20:16:31;;;;;;;;;;;;;;;2.25;81.50;99291.00;4973325;28;19929;-87
2022/01/07 20:18:56;;;;;;;;;;;;;;;2.24;81.47;99294.50;4971400;28;19981;-87
2022/01/07 20:21:22;;;;;;;;;;;;;;;2.26;81.32;99300.53;4969470;28;20005;-88
2022/01/07 20:23:47;;;;;;;;;;;;;;;2.25;81.16;99296.22;4971929;28;19930;-89
2022/01/07 20:26:12;;;;;;;;;;;;;;;2.26;80.98;99286.63;4969945;28;20427;-89
2022/01/07 20:28:38;;;;;;;;;;;;;;;2.27;80.69;99288.34;4972876;28;20000;-89
2022/01/07 20:31:03;;;;;;;;;;;;;;;2.31;80.89;99283.06;4972930;28;19926;-89
2022/01/07 20:33:28;;;;;;;;;;;;;;;2.30;80.56;99280.47;4970453;28;19930;-87
2022/01/07 20:35:54;;;;;;;;;;;;;;;2.28;80.53;99277.00;4970404;28;19926;-88
2022/01/07 20:38:21;;;;;;;;;;;;;;;2.29;80.58;99274.34;4971291;28;19930;-90
2022/01/07 20:40:47;;;;;;;;;;;;;;;2.30;80.47;99267.41;4971415;28;20370;-88
2022/01/07 20:43:12;;;;;;;;;;;;;;;2.31;80.42;99245.56;4970225;28;20017;-89
2022/01/07 20:45:37;;;;;;;;;;;;;;;2.32;80.42;99231.63;4969245;28;19954;-88
2022/01/07 20:48:03;;;;;;;;;;;;;;;2.33;80.30;99217.63;4985708;28;19950;-89
2022/01/07 20:50:28;;;;;;;;;;;;;;;2.30;80.15;99220.34;4970716;28;20373;-89
2022/01/07 20:52:54;;;;;;;;;;;;;;;2.31;80.02;99229.88;4969881;28;20387;-89
2022/01/07 20:55:19;;;;;;;;;;;;;;;2.30;79.74;99234.25;4972298;28;20017;-88
2022/01/07 20:57:44;;;;;;;;;;;;;;;2.32;79.46;99229.84;4970462;28;19926;-88
2022/01/07 21:00:12;;;;;;;;;;;;;;;2.33;79.50;99222.88;4970375;28;19926;-89
2022/01/07 21:02:37;;;;;;;;;;;;;;;2.32;79.30;99224.63;4973528;28;20012;-87
2022/01/07 21:05:03;;;;;;;;;;;;;;;2.37;79.36;99208.84;4973745;28;20318;-88